EGYD

RAF Cranwell Airport

Cranwell, United Kingdom
METAR EGYD 191850Z AUTO 26017KT 9999 // FEW130/// 15/02 Q1010
Observed Flight Rules
Sep-19 @ 18:50 UTC (21 minutes ago) Visual Flight Rules
Wind Visibility Clouds
260° at 17 knots 10,000+ meters
  • Few at 13,000' AGL
Temperatures Readings
Current 15°C / 59°F
Dewpoint 2°C / 36°F
Humidity 42%
Altimeter 29.82" Hg
Pressure 1010 hPa
Elevation 67
METAR EGYD 191850Z AUTO 26017KT 9999 // FEW130/// 15/02 Q1010
Observed Flight Rules
Sep-19 @ 18:50 UTC
(21 minutes ago)
VFR
Wind Visibility
260° at 17 knots 10,000+ meters
Clouds
  • Few at 13,000' AGL
Temperature Dewpoint
15°C / 59°F 2°C / 36°F
Humidity Altimeter Pressure
42% 29.82" Hg 1010 hPa